createdAt,value
2023-10-10T00:00:41.197Z,85.38
2023-10-10T00:01:41.182Z,85.17
2023-10-10T00:02:41.292Z,84.97
2023-10-10T00:03:41.673Z,85.78
2023-10-10T00:04:41.169Z,85.88
2023-10-10T00:05:41.153Z,85.68
2023-10-10T00:06:41.159Z,85.68
2023-10-10T00:07:41.141Z,85.48
2023-10-10T00:08:41.072Z,85.58
2023-10-10T00:09:41.063Z,85.78
2023-10-10T00:10:41.069Z,85.88
2023-10-10T00:11:41.053Z,85.78
2023-10-10T00:12:41.064Z,85.99
2023-10-10T00:13:41.066Z,86.08
2023-10-10T00:14:41.044Z,85.88
2023-10-10T00:15:41.031Z,86.39
2023-10-10T00:16:40.983Z,85.99
2023-10-10T00:17:41.018Z,85.88
2023-10-10T00:18:40.957Z,85.99
2023-10-10T00:19:40.967Z,86.19
2023-10-10T00:20:41.036Z,86.19
2023-10-10T00:21:40.951Z,86.19
2023-10-10T00:22:40.915Z,85.99
2023-10-10T00:23:40.940Z,86.49
2023-10-10T00:24:40.910Z,85.88
2023-10-10T00:25:40.904Z,85.78
2023-10-10T00:26:40.899Z,86.19
2023-10-10T00:27:40.902Z,86.29
2023-10-10T00:28:40.850Z,85.38
2023-10-10T00:29:40.903Z,84.77
2023-10-10T00:30:40.908Z,85.17
2023-10-10T00:31:40.854Z,84.67
2023-10-10T00:32:40.907Z,84.67
2023-10-10T00:33:40.814Z,85.17
2023-10-10T00:34:40.903Z,84.87
2023-10-10T00:35:40.833Z,84.97
2023-10-10T00:36:40.763Z,85.17
2023-10-10T00:37:40.778Z,84.87
2023-10-10T00:38:40.826Z,84.56
2023-10-10T00:39:40.744Z,84.77
2023-10-10T00:40:40.738Z,85.38
2023-10-10T00:41:40.716Z,85.27
2023-10-10T00:42:40.693Z,85.17
2023-10-10T00:43:40.721Z,84.87
2023-10-10T00:44:40.902Z,85.07
2023-10-10T00:45:40.680Z,85.07
2023-10-10T00:46:40.685Z,85.17
2023-10-10T00:47:40.715Z,85.27
2023-10-10T00:48:40.635Z,85.58
2023-10-10T00:49:40.678Z,86.49
2023-10-10T00:50:40.602Z,85.68
2023-10-10T00:51:40.607Z,85.38
2023-10-10T00:52:40.586Z,85.27
2023-10-10T00:53:40.596Z,85.17
2023-10-10T00:54:40.856Z,85.17
2023-10-10T00:55:40.585Z,85.31
2023-10-10T00:56:40.553Z,85.11
2023-10-10T00:57:40.567Z,85.21
2023-10-10T00:58:40.549Z,85.31
2023-10-10T00:59:40.533Z,85.42
2023-10-10T01:00:40.594Z,85.42
2023-10-10T01:01:40.504Z,85.52
2023-10-10T01:02:40.624Z,85.62
2023-10-10T01:03:40.622Z,85.82
2023-10-10T01:04:40.501Z,85.72
2023-10-10T01:05:40.472Z,85.82
2023-10-10T01:06:40.448Z,85.82
2023-10-10T01:07:40.442Z,85.72
2023-10-10T01:08:40.425Z,85.72
2023-10-10T01:09:40.397Z,86.13
2023-10-10T01:10:40.410Z,86.02
2023-10-10T01:11:40.392Z,86.02
2023-10-10T01:12:40.458Z,85.93
2023-10-10T01:13:40.365Z,86.13
2023-10-10T01:14:40.371Z,85.93
2023-10-10T01:15:40.335Z,86.13
2023-10-10T01:16:40.371Z,86.13
2023-10-10T01:17:40.380Z,85.42
2023-10-10T01:18:40.340Z,85.93
2023-10-10T01:19:40.297Z,86.43
2023-10-10T01:20:40.333Z,86.43
2023-10-10T01:21:40.278Z,85.72
2023-10-10T01:22:40.280Z,85.21
2023-10-10T01:23:40.282Z,85.52
2023-10-10T01:24:40.256Z,85.42
2023-10-10T01:25:40.280Z,85.62
2023-10-10T01:26:40.232Z,85.72
2023-10-10T01:27:40.214Z,85.31
2023-10-10T01:28:40.216Z,85.56
2023-10-10T01:29:40.234Z,85.66
2023-10-10T06:01:00.496Z,93.01
2023-10-10T06:02:01.448Z,93.10
2023-10-10T06:03:01.566Z,93.21
2023-10-10T06:04:01.477Z,93.10
2023-10-10T06:05:01.451Z,93.10
2023-10-10T06:06:01.407Z,93.01
2023-10-10T06:07:01.407Z,92.80
2023-10-10T06:08:01.398Z,92.90
2023-10-10T06:09:01.632Z,93.10
2023-10-10T06:10:01.359Z,93.21
2023-10-10T06:11:01.570Z,93.31
2023-10-10T06:12:01.412Z,93.10
2023-10-10T06:13:01.334Z,93.01
2023-10-10T06:14:01.318Z,93.10
2023-10-10T06:15:01.295Z,93.16
2023-10-10T06:16:01.311Z,93.37
2023-10-10T06:17:01.315Z,93.47
2023-10-10T06:18:01.325Z,93.37
2023-10-10T06:19:01.290Z,93.26
2023-10-10T06:20:01.291Z,93.16
2023-10-10T06:21:09.182Z,93.37
2023-10-10T06:22:01.233Z,93.06
2023-10-10T06:23:01.209Z,93.16
2023-10-10T06:24:01.203Z,93.47
2023-10-10T06:25:01.763Z,93.26
2023-10-10T06:26:01.204Z,93.26
2023-10-10T06:27:01.160Z,93.37
2023-10-10T06:28:01.167Z,93.77
2023-10-10T06:29:01.139Z,93.57
2023-10-10T06:30:01.177Z,93.37
2023-10-10T06:31:01.422Z,93.22
2023-10-10T06:32:01.115Z,93.83
2023-10-10T06:33:01.214Z,93.43
2023-10-10T06:34:01.258Z,93.12
2023-10-10T06:35:01.068Z,93.32
2023-10-10T06:36:01.079Z,93.12
2023-10-10T06:37:01.062Z,93.43
2023-10-10T06:38:01.069Z,93.12
2023-10-10T06:39:01.182Z,93.12
2023-10-10T06:40:01.156Z,92.91
2023-10-10T06:41:01.013Z,92.41
2023-10-10T06:42:01.021Z,92.00
2023-10-10T06:43:02.711Z,92.00
2023-10-10T06:44:01.026Z,92.10
2023-10-10T06:45:01.071Z,92.51
2023-10-10T06:46:01.017Z,92.71
2023-10-10T06:47:00.941Z,92.36
2023-10-10T06:48:01.041Z,92.67
2023-10-10T06:49:00.921Z,92.36
2023-10-10T06:50:02.833Z,92.97
2023-10-10T06:51:00.911Z,92.36
2023-10-10T06:52:00.911Z,92.16
2023-10-10T06:53:00.884Z,91.86
2023-10-10T06:54:00.886Z,91.25
2023-10-10T06:55:00.874Z,91.96
2023-10-10T06:56:00.863Z,91.96
2023-10-10T06:57:01.258Z,92.16
2023-10-10T06:58:00.836Z,91.86
2023-10-10T06:59:00.830Z,92.47
2023-10-10T07:00:00.815Z,91.65
2023-10-10T07:01:00.915Z,91.25
2023-10-10T07:02:00.781Z,91.10
2023-10-10T07:03:01.131Z,92.02
2023-10-10T07:04:00.924Z,92.02
2023-10-10T07:05:00.793Z,91.10
2023-10-10T07:06:00.729Z,92.02
2023-10-10T07:07:00.760Z,91.20
2023-10-10T07:08:00.801Z,91.20
2023-10-10T07:09:00.724Z,91.41
2023-10-10T07:10:00.706Z,90.90
2023-10-10T07:11:00.698Z,90.59
2023-10-10T07:12:00.709Z,91.00
2023-10-10T07:13:00.697Z,91.82
2023-10-10T07:14:00.788Z,91.00
2023-10-10T07:15:00.726Z,90.96
2023-10-10T07:16:00.711Z,90.55
2023-10-10T07:17:00.650Z,90.55
2023-10-10T07:18:00.738Z,90.86
2023-10-10T07:19:00.658Z,90.25
2023-10-10T07:20:00.593Z,91.36
2023-10-10T07:21:00.688Z,90.14
2023-10-10T07:22:00.564Z,90.05
2023-10-10T07:23:00.687Z,89.64
2023-10-10T07:24:00.573Z,90.75
2023-10-10T07:25:00.582Z,90.75
2023-10-10T07:26:00.568Z,90.86
2023-10-10T07:27:00.532Z,90.66
2023-10-10T07:28:00.568Z,91.16
2023-10-10T07:29:00.520Z,89.84
2023-10-10T07:30:00.506Z,89.94
2023-10-10T07:31:00.575Z,90.05
2023-10-10T07:32:00.461Z,89.84
2023-10-10T07:33:06.628Z,89.84
2023-10-10T07:34:00.474Z,90.35
2023-10-10T07:35:07.504Z,89.39
2023-10-10T07:36:06.427Z,90.92
2023-10-10T07:37:00.404Z,90.00
2023-10-10T07:39:16.887Z,89.70
2023-10-10T07:40:17.646Z,89.50
2023-10-10T07:41:17.639Z,88.78
2023-10-10T07:42:17.627Z,88.89
2023-10-10T07:43:17.626Z,89.59
2023-10-10T07:44:18.293Z,88.78
2023-10-10T07:45:17.563Z,90.41
2023-10-10T07:46:17.594Z,88.78
2023-10-10T07:47:17.702Z,90.00
2023-10-10T07:48:17.660Z,88.78
2023-10-10T07:49:17.521Z,89.76
2023-10-10T07:50:17.552Z,88.44
2023-10-10T07:51:17.498Z,89.55
2023-10-10T07:52:17.736Z,89.35
2023-10-10T07:53:17.523Z,89.55
2023-10-10T07:54:17.638Z,89.04
2023-10-10T07:55:17.460Z,88.95
2023-10-10T07:56:17.481Z,88.75
2023-10-10T07:57:17.453Z,89.04
2023-10-10T07:58:17.461Z,89.76
2023-10-10T07:59:17.479Z,88.95
2023-10-10T08:00:17.415Z,88.75
2023-10-10T08:01:17.580Z,88.64
2023-10-10T08:02:17.415Z,88.13
2023-10-10T08:03:17.512Z,88.54
2023-10-10T08:04:18.535Z,88.84
2023-10-10T08:05:17.383Z,88.60
2023-10-10T08:06:17.356Z,89.11
2023-10-10T08:07:17.321Z,87.99
2023-10-10T08:08:17.352Z,87.89
2023-10-10T08:09:17.328Z,87.89
2023-10-10T08:10:17.443Z,87.99
2023-10-10T08:11:17.333Z,88.60
2023-10-10T08:12:17.327Z,87.28
2023-10-10T08:13:17.280Z,87.48
2023-10-10T08:14:17.413Z,87.48
2023-10-10T08:15:17.241Z,87.48
2023-10-10T08:16:17.277Z,86.57
2023-10-10T08:17:17.257Z,86.16
2023-10-10T08:18:17.314Z,87.59
2023-10-10T08:19:17.211Z,87.28
2023-10-10T08:20:17.215Z,86.16
2023-10-10T08:21:17.189Z,87.45
2023-10-10T08:22:17.198Z,88.25
2023-10-10T08:23:17.230Z,86.53
2023-10-10T08:24:17.372Z,86.33
2023-10-10T08:25:17.147Z,86.43
2023-10-10T08:26:17.201Z,87.65
2023-10-10T08:27:17.143Z,88.46
2023-10-10T08:28:17.162Z,87.24
2023-10-10T08:29:17.111Z,86.22
2023-10-10T08:30:17.120Z,85.72
2023-10-10T08:31:17.098Z,86.59
2023-10-10T08:32:17.103Z,86.08
2023-10-10T08:33:17.240Z,86.29
2023-10-10T08:34:17.286Z,86.29
2023-10-10T08:35:17.073Z,86.39
2023-10-10T08:36:17.037Z,86.29
2023-10-10T08:37:17.087Z,86.19
2023-10-10T08:38:17.019Z,86.08
2023-10-10T08:39:16.993Z,85.68
2023-10-10T08:40:17.002Z,85.58
2023-10-10T08:41:16.989Z,85.38
2023-10-10T08:42:16.986Z,85.54
2023-10-10T08:43:16.949Z,86.45
2023-10-10T08:44:17.233Z,85.44
2023-10-10T08:45:16.918Z,85.33
2023-10-10T08:46:16.999Z,85.03
2023-10-10T08:47:16.967Z,84.73
2023-10-10T08:48:17.073Z,85.74
2023-10-10T08:49:16.883Z,84.63
2023-10-10T08:50:16.948Z,85.54
2023-10-10T08:51:16.859Z,86.05
2023-10-10T08:52:16.898Z,85.24
2023-10-10T08:53:16.898Z,84.93
2023-10-10T08:54:18.081Z,84.79
2023-10-10T08:55:16.853Z,84.39
2023-10-10T08:56:16.862Z,84.59
2023-10-10T08:57:16.806Z,84.08
2023-10-10T08:58:16.804Z,83.88
2023-10-10T08:59:16.829Z,83.78
2023-10-10T09:00:16.807Z,84.19
2023-10-10T09:01:16.853Z,83.98
2023-10-10T09:02:16.766Z,84.08
2023-10-10T09:03:16.924Z,84.19
2023-10-10T09:04:17.034Z,84.65
2023-10-10T09:05:16.750Z,83.13
2023-10-10T09:06:16.714Z,83.13
2023-10-10T09:07:16.744Z,83.54
2023-10-10T09:08:16.739Z,83.33
2023-10-10T09:09:16.667Z,84.75
2023-10-10T09:10:16.678Z,83.74
2023-10-10T09:11:16.673Z,82.89
2023-10-10T09:12:16.660Z,82.69
2023-10-10T09:13:16.641Z,81.98
2023-10-10T09:14:16.736Z,82.18
2023-10-10T09:15:16.596Z,81.27
2023-10-10T09:16:16.651Z,81.27
2023-10-10T09:17:16.641Z,81.07
2023-10-10T09:18:16.596Z,81.27
2023-10-10T09:19:16.714Z,82.79
2023-10-10T09:20:16.568Z,80.57
2023-10-10T09:21:16.552Z,80.93
2023-10-10T09:22:16.528Z,80.22
2023-10-10T09:23:16.580Z,80.73
2023-10-10T09:24:16.725Z,81.44
2023-10-10T09:25:16.524Z,79.52
2023-10-10T09:26:16.516Z,79.92
2023-10-10T09:27:16.506Z,81.54
2023-10-10T09:28:16.830Z,79.82
2023-10-10T09:29:17.068Z,79.52
2023-10-10T09:30:16.444Z,78.91
2023-10-10T09:31:16.483Z,79.08
2023-10-10T09:32:16.460Z,79.88
2023-10-10T09:33:16.509Z,80.19
2023-10-10T09:34:16.489Z,78.67
2023-10-10T09:35:16.439Z,78.06
2023-10-10T09:36:16.373Z,79.79
2023-10-10T09:37:16.404Z,78.88
2023-10-10T09:38:16.367Z,77.15
2023-10-10T09:39:16.391Z,78.06
2023-10-10T09:40:16.341Z,79.38
2023-10-10T09:41:16.411Z,79.28
2023-10-10T09:42:16.360Z,77.26
2023-10-10T09:43:16.308Z,79.74
2023-10-10T09:44:16.548Z,76.82
2023-10-10T09:45:16.339Z,78.63
2023-10-10T09:46:16.286Z,76.31
2023-10-10T09:47:16.293Z,77.62
2023-10-10T09:48:16.361Z,77.83
2023-10-10T09:49:16.258Z,77.62
2023-10-10T09:50:16.228Z,75.60
2023-10-10T09:51:16.265Z,77.02
2023-10-10T09:52:16.199Z,76.01
2023-10-10T09:53:16.249Z,76.92
2023-10-10T09:54:16.347Z,75.10
2023-10-10T09:55:16.180Z,77.19
2023-10-10T09:56:16.236Z,76.68
2023-10-10T09:57:19.026Z,77.19
2023-10-10T09:58:16.143Z,75.16
2023-10-10T09:59:16.183Z,75.16
2023-10-10T10:00:27.327Z,75.67
2023-10-10T10:01:16.126Z,75.77
2023-10-10T10:02:16.133Z,76.38
2023-10-10T10:03:16.152Z,75.16
2023-10-10T10:04:16.216Z,74.76
2023-10-10T10:05:16.134Z,75.37
2023-10-10T10:06:16.062Z,76.38
2023-10-10T10:07:16.057Z,75.67
2023-10-10T10:08:16.093Z,74.46
2023-10-10T10:09:16.061Z,74.36
2023-10-10T10:10:16.022Z,77.28
2023-10-10T10:11:16.042Z,75.74
2023-10-10T10:12:15.998Z,76.04
2023-10-10T10:13:15.989Z,76.04
2023-10-10T10:14:18.046Z,76.34
2023-10-10T10:15:15.979Z,76.44
2023-10-10T10:16:15.981Z,74.73
2023-10-10T10:17:15.960Z,75.13
2023-10-10T10:18:15.970Z,74.02
2023-10-10T10:19:15.958Z,74.73
2023-10-10T10:20:15.979Z,74.83
2023-10-10T10:21:15.908Z,73.92
2023-10-10T10:22:15.888Z,73.42
2023-10-10T10:23:15.906Z,75.43
2023-10-10T10:24:16.132Z,74.43
2023-10-10T10:25:15.871Z,74.19
2023-10-10T10:26:15.894Z,74.69
2023-10-10T10:27:15.849Z,74.69
2023-10-10T10:28:16.143Z,73.48
2023-10-10T10:29:15.893Z,72.38
2023-10-10T10:30:15.800Z,72.27
2023-10-10T10:31:15.831Z,72.58
2023-10-10T10:32:15.856Z,72.07
2023-10-10T10:33:15.901Z,73.68
2023-10-10T10:34:15.910Z,73.88
2023-10-10T10:35:15.772Z,73.48
2023-10-10T10:36:16.420Z,72.98
2023-10-10T10:37:15.743Z,73.48
2023-10-10T10:38:15.750Z,72.94
2023-10-10T10:39:15.788Z,72.85
2023-10-10T10:40:15.694Z,72.74
2023-10-10T10:41:15.708Z,72.85
2023-10-10T10:42:15.678Z,72.54
2023-10-10T10:43:15.900Z,73.65
2023-10-10T10:44:15.808Z,73.05
2023-10-10T10:45:15.650Z,72.64
2023-10-10T10:46:15.760Z,71.73
2023-10-10T10:47:16.910Z,73.45
2023-10-10T10:48:15.767Z,71.44
2023-10-10T10:49:15.625Z,72.31
2023-10-10T10:50:15.629Z,71.40
2023-10-10T10:51:15.607Z,72.91
2023-10-10T10:52:15.616Z,71.10
2023-10-10T10:53:15.589Z,70.79
2023-10-10T10:54:15.683Z,71.40
2023-10-10T10:55:15.552Z,71.91
2023-10-10T10:56:15.577Z,71.97
2023-10-10T10:57:15.521Z,70.86
2023-10-10T10:58:15.503Z,72.27
2023-10-10T10:59:15.814Z,71.16
2023-10-10T11:00:15.561Z,72.07
2023-10-10T11:01:15.510Z,71.56
2023-10-10T11:02:15.585Z,71.47
2023-10-10T11:03:15.582Z,71.56
2023-10-10T11:04:15.691Z,70.26
2023-10-10T11:05:15.543Z,72.44
2023-10-10T11:06:15.422Z,71.83
2023-10-10T11:07:15.413Z,71.83
2023-10-10T11:08:15.434Z,70.03
2023-10-10T11:09:15.417Z,70.53
2023-10-10T11:10:15.367Z,69.42
2023-10-10T11:11:15.433Z,71.80
2023-10-10T11:12:15.352Z,69.69
2023-10-10T11:13:15.366Z,71.40
2023-10-10T11:14:15.618Z,69.29
2023-10-10T11:15:15.326Z,71.50
2023-10-10T11:16:15.337Z,70.79
2023-10-10T11:17:15.351Z,69.69
2023-10-10T11:18:15.391Z,70.39
2023-10-10T11:19:15.477Z,68.75
2023-10-10T11:20:15.321Z,70.46
2023-10-10T11:21:15.275Z,70.26
2023-10-10T11:22:15.243Z,69.35
2023-10-10T11:23:15.277Z,70.36
2023-10-10T11:24:15.482Z,69.45
2023-10-10T11:25:15.230Z,68.75
2023-10-10T11:26:15.290Z,68.25
2023-10-10T11:27:15.555Z,68.62
2023-10-10T11:28:15.181Z,70.23
2023-10-10T11:29:15.178Z,68.95
2023-10-10T11:30:15.163Z,67.82
2023-10-10T11:31:16.291Z,68.32
2023-10-10T11:32:15.202Z,68.62
2023-10-10T11:33:15.235Z,68.72
2023-10-10T11:34:15.270Z,68.82
2023-10-10T11:35:15.119Z,68.72
2023-10-10T11:36:15.123Z,69.52
2023-10-10T11:37:15.142Z,67.41
2023-10-10T11:38:15.120Z,68.18
2023-10-10T11:39:15.074Z,68.08
2023-10-10T11:40:15.053Z,67.58
2023-10-10T11:41:15.183Z,67.28
2023-10-10T11:42:15.046Z,68.08
2023-10-10T11:43:15.036Z,66.98
2023-10-10T11:44:15.190Z,67.65
2023-10-10T11:45:15.072Z,66.44
2023-10-10T11:46:15.016Z,67.95
2023-10-10T11:47:15.019Z,67.05
2023-10-10T11:48:15.042Z,66.82
2023-10-10T11:49:14.964Z,65.91
2023-10-10T11:50:14.981Z,66.71
2023-10-10T11:51:14.946Z,66.31
2023-10-10T11:52:14.926Z,66.21
2023-10-10T11:53:14.994Z,65.28
2023-10-10T11:54:15.173Z,65.78
2023-10-10T11:55:14.892Z,65.98
2023-10-10T11:56:14.984Z,65.88
2023-10-10T11:57:14.880Z,67.69
2023-10-10T11:58:14.856Z,67.49
2023-10-10T11:59:14.874Z,64.68
2023-10-10T12:00:27.110Z,66.35
2023-10-10T12:01:14.902Z,65.25
2023-10-10T12:02:14.916Z,64.34
2023-10-10T12:03:14.946Z,65.55
2023-10-10T12:04:14.953Z,66.15
2023-10-10T12:05:14.809Z,65.65
2023-10-10T12:06:14.786Z,64.84
2023-10-10T12:07:14.769Z,65.52
2023-10-10T12:08:14.758Z,65.31
2023-10-10T12:09:14.759Z,64.01
2023-10-10T12:10:14.747Z,66.02
2023-10-10T12:11:14.756Z,64.42
2023-10-10T12:12:14.755Z,64.51
2023-10-10T12:13:14.704Z,64.01
2023-10-10T12:14:14.884Z,65.62
2023-10-10T12:15:14.709Z,65.31
2023-10-10T12:16:14.713Z,66.02
2023-10-10T12:17:14.739Z,63.81
2023-10-10T12:18:14.708Z,64.48
2023-10-10T12:19:14.641Z,65.28
2023-10-10T12:20:14.718Z,63.68
2023-10-10T12:21:14.640Z,64.69
2023-10-10T12:22:14.622Z,63.89
2023-10-10T12:23:14.611Z,63.28
2023-10-10T12:24:14.616Z,62.68
2023-10-10T12:25:14.571Z,62.98
2023-10-10T12:26:14.564Z,63.08
2023-10-10T12:27:14.553Z,64.06
2023-10-10T12:28:14.556Z,63.06
2023-10-10T12:29:14.588Z,62.55
2023-10-10T12:30:14.506Z,62.95
2023-10-10T12:31:14.537Z,64.06
2023-10-10T12:32:14.547Z,62.25
2023-10-10T12:33:14.592Z,63.56
2023-10-10T12:34:14.683Z,64.36
2023-10-10T12:35:14.509Z,62.35
2023-10-10T12:36:14.444Z,61.92
2023-10-10T12:37:14.452Z,63.72
2023-10-10T12:38:14.493Z,63.12
2023-10-10T12:39:14.427Z,63.02
2023-10-10T12:40:14.414Z,64.22
2023-10-10T12:41:14.400Z,61.72
2023-10-10T12:42:14.374Z,62.42
2023-10-10T12:43:14.428Z,61.92
2023-10-10T12:44:14.601Z,63.72
2023-10-10T12:45:14.366Z,62.12
2023-10-10T12:46:14.339Z,63.22
2023-10-10T12:47:15.411Z,62.32
2023-10-10T12:48:14.380Z,62.22
2023-10-10T12:49:14.347Z,62.72
2023-10-10T12:50:14.298Z,61.62
2023-10-10T12:51:14.345Z,62.82
2023-10-10T12:52:14.285Z,63.12
2023-10-10T12:53:14.321Z,63.22
2023-10-10T12:54:14.321Z,62.92
2023-10-10T12:55:14.318Z,62.52
2023-10-10T12:56:14.236Z,63.53
2023-10-10T12:57:14.230Z,62.22
2023-10-10T12:58:14.208Z,62.42
2023-10-10T13:00:14.215Z,61.92
2023-10-10T13:01:14.265Z,62.22
2023-10-10T13:02:14.201Z,61.22
2023-10-10T13:03:14.293Z,61.79
2023-10-10T13:04:14.277Z,62.59
2023-10-10T13:05:14.159Z,61.89
2023-10-10T13:06:14.128Z,61.29
2023-10-10T13:07:14.169Z,62.09
2023-10-10T13:08:14.101Z,60.89
2023-10-10T13:09:14.100Z,62.89
2023-10-10T13:10:14.083Z,62.39
2023-10-10T13:11:14.089Z,62.16
2023-10-10T13:12:14.065Z,61.57
2023-10-10T13:13:14.087Z,60.06
2023-10-10T13:14:14.147Z,59.74
2023-10-10T13:15:14.042Z,61.33
2023-10-10T13:16:14.070Z,60.03
2023-10-10T13:17:14.027Z,59.34
2023-10-10T13:18:14.051Z,59.51
2023-10-10T13:19:14.020Z,60.71
2023-10-10T13:20:13.976Z,59.70
2023-10-10T13:21:13.978Z,61.51
2023-10-10T13:22:13.971Z,59.91
2023-10-10T13:23:13.973Z,59.51
2023-10-10T13:24:14.008Z,60.31
2023-10-10T13:25:13.983Z,60.41
2023-10-10T13:26:13.918Z,60.91
2023-10-10T13:27:13.924Z,61.00
2023-10-10T13:28:13.893Z,59.91
2023-10-10T13:29:15.964Z,60.08
2023-10-10T13:30:13.929Z,59.48
2023-10-10T13:31:13.917Z,58.88
2023-10-10T13:32:13.863Z,60.88
2023-10-10T13:33:13.937Z,59.38
2023-10-10T13:34:13.960Z,59.18
2023-10-10T13:35:13.825Z,59.98
2023-10-10T13:36:13.861Z,57.88
2023-10-10T13:37:13.795Z,59.18
2023-10-10T13:38:13.798Z,58.36
2023-10-10T13:39:13.779Z,57.86
2023-10-10T13:40:13.790Z,59.25
2023-10-10T13:41:13.778Z,59.65
2023-10-10T13:42:13.785Z,58.15
2023-10-10T13:43:13.730Z,57.15
2023-10-10T13:44:13.762Z,59.75
2023-10-10T13:45:13.720Z,59.85
2023-10-10T13:46:13.751Z,58.55
2023-10-10T13:47:13.696Z,58.75
2023-10-10T13:48:13.828Z,57.95
2023-10-10T13:49:13.674Z,58.45
2023-10-10T13:50:13.674Z,58.36
2023-10-10T13:51:13.645Z,57.95
2023-10-10T13:52:13.681Z,58.06
2023-10-10T13:53:13.629Z,57.73
2023-10-10T13:54:13.660Z,57.43
2023-10-10T13:55:13.603Z,58.53
2023-10-10T13:56:13.611Z,57.93
2023-10-10T13:57:13.584Z,57.73
2023-10-10T13:58:13.593Z,58.33
2023-10-10T13:59:13.598Z,57.60
2023-10-10T14:00:13.569Z,57.70
2023-10-10T14:01:13.610Z,56.51
2023-10-10T14:02:13.589Z,56.70
2023-10-10T14:03:13.676Z,58.40
2023-10-10T14:04:13.753Z,58.20
2023-10-10T14:05:13.522Z,57.50
2023-10-10T14:06:13.547Z,59.19
2023-10-10T14:07:13.476Z,56.81
2023-10-10T14:08:13.476Z,57.60
2023-10-10T14:09:13.462Z,57.07
2023-10-10T14:10:13.500Z,56.98
2023-10-10T14:11:13.481Z,56.77
2023-10-10T14:12:13.442Z,58.27
2023-10-10T14:13:19.589Z,57.28
2023-10-10T14:14:13.431Z,55.88
2023-10-10T14:15:13.401Z,58.87
2023-10-10T14:16:13.424Z,56.48
2023-10-10T14:17:13.404Z,56.27
2023-10-10T14:18:13.553Z,56.48
2023-10-10T14:19:13.354Z,56.68
2023-10-10T14:20:13.368Z,56.38
2023-10-10T14:21:13.336Z,57.45
2023-10-10T14:22:13.338Z,58.44
2023-10-10T14:23:13.425Z,56.35
2023-10-10T14:24:13.328Z,56.55
2023-10-10T14:25:13.306Z,56.25
2023-10-10T14:26:13.297Z,57.35
2023-10-10T14:27:13.304Z,56.25
2023-10-10T14:28:13.274Z,57.84
2023-10-10T14:29:13.294Z,55.85
2023-10-10T14:30:13.300Z,55.46
2023-10-10T14:31:13.277Z,54.83
2023-10-10T14:32:26.569Z,54.63
2023-10-10T14:33:13.298Z,55.33
2023-10-10T14:34:13.507Z,54.33
2023-10-10T14:35:13.203Z,55.53
2023-10-10T14:36:13.214Z,55.63
2023-10-10T14:37:33.646Z,56.82
2023-10-10T14:38:13.168Z,55.63
2023-10-10T14:39:13.135Z,57.32
2023-10-10T14:40:13.181Z,55.93
2023-10-10T14:41:13.120Z,54.60
2023-10-10T14:42:13.135Z,56.00
2023-10-10T14:43:13.099Z,57.79
2023-10-10T14:44:13.113Z,57.29
2023-10-10T14:45:13.139Z,56.79
2023-10-10T14:46:13.135Z,55.70
2023-10-10T14:47:13.064Z,54.53
2023-10-10T14:48:13.171Z,54.31
2023-10-10T14:49:13.032Z,53.71
2023-10-10T14:50:13.053Z,56.20
2023-10-10T14:51:13.025Z,56.20
2023-10-10T14:52:13.056Z,56.40
2023-10-10T14:53:13.008Z,53.51
2023-10-10T14:54:13.109Z,54.80
2023-10-10T14:55:12.990Z,54.21
2023-10-10T14:56:12.981Z,55.00
2023-10-10T14:57:12.970Z,54.60
2023-10-10T14:58:12.963Z,55.20
2023-10-10T14:59:12.930Z,54.21
2023-10-10T15:00:13.008Z,56.10
2023-10-10T15:01:12.917Z,54.50
2023-10-10T15:02:12.909Z,53.81
2023-10-10T15:03:13.156Z,53.61
2023-10-10T15:04:12.899Z,54.01
2023-10-10T15:05:12.908Z,56.49
2023-10-10T15:06:12.865Z,54.71
2023-10-10T15:07:12.847Z,55.40
2023-10-10T15:08:12.848Z,56.40
2023-10-10T15:09:12.822Z,55.80
2023-10-10T15:10:12.906Z,56.70
2023-10-10T15:11:12.832Z,55.90
2023-10-10T15:12:12.828Z,55.40
2023-10-10T15:13:12.782Z,54.60
2023-10-10T15:14:12.788Z,53.81
2023-10-10T15:15:12.788Z,55.40
2023-10-10T15:16:12.813Z,54.50
2023-10-10T15:17:12.767Z,55.40
2023-10-10T15:18:12.935Z,54.21
2023-10-10T15:19:12.725Z,53.51
2023-10-10T15:20:12.745Z,54.11
2023-10-10T15:21:12.724Z,55.00
2023-10-10T15:22:12.731Z,53.81
2023-10-10T15:23:12.716Z,56.49
2023-10-10T15:24:12.898Z,54.21
2023-10-10T15:25:12.660Z,55.80
2023-10-10T15:26:12.670Z,55.70
2023-10-10T15:27:12.667Z,53.91
2023-10-10T15:28:12.633Z,54.21
2023-10-10T15:29:12.617Z,53.51
2023-10-10T15:30:12.611Z,53.71
2023-10-10T15:31:12.599Z,55.20
2023-10-10T15:32:12.586Z,56.49
2023-10-10T15:33:12.618Z,53.41
2023-10-10T15:34:12.572Z,54.41
2023-10-10T15:35:12.554Z,52.91
2023-10-10T15:36:12.577Z,53.11
2023-10-10T15:37:12.545Z,54.01
2023-10-10T15:38:12.530Z,54.60
2023-10-10T15:39:12.580Z,55.30
2023-10-10T15:40:12.514Z,53.61
2023-10-10T15:41:12.488Z,54.80
2023-10-10T15:42:12.477Z,53.91
2023-10-10T15:43:29.898Z,54.41
2023-10-10T15:44:12.473Z,53.11
2023-10-10T15:45:12.447Z,55.30
2023-10-10T15:46:12.509Z,55.10
2023-10-10T15:47:12.418Z,54.31
2023-10-10T15:48:12.521Z,54.90
2023-10-10T15:49:24.813Z,55.40
2023-10-10T15:50:12.413Z,54.43
2023-10-10T15:51:12.375Z,53.53
2023-10-10T15:52:12.382Z,52.94
2023-10-10T15:53:12.357Z,53.14
2023-10-10T15:54:12.382Z,54.43
2023-10-10T15:55:12.367Z,54.33
2023-10-10T15:56:12.337Z,55.03
2023-10-10T15:57:12.321Z,55.26
2023-10-10T15:58:12.321Z,56.15
2023-10-10T15:59:12.318Z,55.16
2023-10-10T16:00:12.315Z,54.75
2023-10-10T16:01:12.279Z,55.05
2023-10-10T16:02:12.281Z,55.48
2023-10-10T16:03:12.318Z,56.77
2023-10-10T16:04:12.286Z,55.98
2023-10-10T16:05:12.234Z,55.58
2023-10-10T16:06:12.296Z,55.88
2023-10-10T16:07:12.224Z,56.18
2023-10-10T16:08:12.231Z,56.40
2023-10-10T16:09:12.217Z,56.70
2023-10-10T16:10:12.206Z,56.70
2023-10-10T16:11:12.175Z,57.40
2023-10-10T16:12:12.179Z,58.89
2023-10-10T16:13:12.170Z,57.03
2023-10-10T16:14:12.151Z,55.73
2023-10-10T16:15:27.743Z,56.83
2023-10-10T16:16:12.192Z,56.23
2023-10-10T16:17:12.102Z,56.66
2023-10-10T16:18:12.182Z,55.66
2023-10-10T16:19:12.084Z,55.66
2023-10-10T16:20:12.087Z,56.56
2023-10-10T16:21:12.084Z,56.85
2023-10-10T16:22:12.068Z,57.15
2023-10-10T16:23:12.057Z,59.25
2023-10-10T16:24:12.054Z,57.65
2023-10-10T16:25:12.026Z,57.39
2023-10-10T16:26:12.053Z,57.09
2023-10-10T16:27:12.006Z,57.68
2023-10-10T16:28:11.996Z,58.08
2023-10-10T16:29:11.987Z,57.78
2023-10-10T16:30:11.992Z,57.98
2023-10-10T16:31:11.954Z,58.98
2023-10-10T16:32:11.975Z,58.61
2023-10-10T16:33:12.037Z,58.91
2023-10-10T16:34:11.946Z,59.01
2023-10-10T16:35:11.940Z,58.71
2023-10-10T16:36:11.938Z,58.44
2023-10-10T16:37:11.896Z,58.84
2023-10-10T16:38:11.898Z,59.44
2023-10-10T16:39:11.864Z,59.83
2023-10-10T16:40:11.878Z,60.03
2023-10-10T16:41:11.887Z,59.64
2023-10-10T16:42:11.860Z,59.06
2023-10-10T16:43:11.835Z,61.16
2023-10-10T16:44:11.836Z,58.97
2023-10-10T16:45:11.948Z,60.06
2023-10-10T16:46:11.846Z,59.97
2023-10-10T16:47:11.802Z,59.59
2023-10-10T16:48:11.855Z,60.19
2023-10-10T16:49:11.762Z,60.59
2023-10-10T16:50:11.784Z,61.19
2023-10-10T16:51:11.746Z,60.69
2023-10-10T16:52:11.797Z,60.69
2023-10-10T16:53:11.902Z,63.19
2023-10-10T16:54:11.746Z,61.02
2023-10-10T16:55:11.740Z,61.12
2023-10-10T16:56:11.701Z,61.12
2023-10-10T16:57:11.677Z,61.72
2023-10-10T16:58:11.735Z,61.52
2023-10-10T16:59:11.702Z,62.22
2023-10-10T17:00:11.677Z,61.32
2023-10-10T17:01:11.673Z,62.25
2023-10-10T17:02:11.636Z,61.55
2023-10-10T17:03:11.753Z,62.55
2023-10-10T17:04:11.869Z,62.15
2023-10-10T17:05:11.607Z,62.75
2023-10-10T17:06:11.600Z,62.38
2023-10-10T17:07:11.609Z,63.18
2023-10-10T17:08:11.574Z,62.28
2023-10-10T17:09:11.594Z,62.48
2023-10-10T17:10:11.638Z,62.78
2023-10-10T17:11:11.535Z,62.48
2023-10-10T17:12:11.557Z,62.68
2023-10-10T17:13:11.580Z,62.78
2023-10-10T17:14:11.561Z,62.98
2023-10-10T17:15:11.539Z,62.48
2023-10-10T17:16:11.579Z,64.12
2023-10-10T17:17:11.515Z,64.22
2023-10-10T17:18:11.727Z,64.92
2023-10-10T17:19:17.398Z,64.42
2023-10-10T17:20:11.510Z,63.42
2023-10-10T17:21:11.470Z,62.92
2023-10-10T17:22:11.475Z,63.92
2023-10-10T17:23:11.455Z,63.81
2023-10-10T17:24:11.505Z,63.01
2023-10-10T17:25:11.458Z,63.31